createdAt,value
2018-08-04T00:00:50.291Z,66.82
2018-08-04T00:03:18.626Z,66.40
2018-08-04T00:05:46.985Z,67.68
2018-08-04T00:08:15.433Z,67.39
2018-08-04T00:10:43.767Z,67.97
2018-08-04T00:13:12.139Z,67.76
2018-08-04T00:15:40.523Z,68.18
2018-08-04T00:18:09.054Z,68.92
2018-08-04T00:20:37.426Z,69.23
2018-08-04T00:23:06.497Z,68.44
2018-08-04T00:25:34.873Z,68.78
2018-08-04T00:28:03.226Z,70.04
2018-08-04T00:30:31.591Z,70.46
2018-08-04T00:33:01.227Z,70.61
2018-08-04T00:35:30.252Z,70.69
2018-08-04T00:37:59.383Z,71.72
2018-08-04T00:40:28.410Z,72.19
2018-08-04T00:42:56.775Z,73.08
2018-08-04T00:45:25.158Z,72.86
2018-08-04T00:47:54.398Z,72.78
2018-08-04T00:50:22.772Z,73.44
2018-08-04T00:52:51.125Z,73.08
2018-08-04T00:55:19.495Z,73.50
2018-08-04T00:57:47.848Z,73.44
2018-08-04T01:00:16.197Z,74.16
2018-08-04T01:02:44.547Z,74.12
2018-08-04T01:05:12.904Z,73.58
2018-08-04T01:07:41.281Z,73.28
2018-08-04T01:10:09.629Z,72.87
2018-08-04T01:12:37.979Z,73.27
2018-08-04T01:15:07.333Z,72.33
2018-08-04T01:17:36.842Z,70.96
2018-08-04T01:20:06.989Z,71.31
2018-08-04T01:22:37.469Z,71.79
2018-08-04T01:25:07.777Z,72.32
2018-08-04T01:27:37.464Z,73.38
2018-08-04T01:30:07.443Z,73.28
2018-08-04T01:32:36.998Z,73.14
2018-08-04T01:35:05.859Z,72.72
2018-08-04T01:37:35.359Z,72.74
2018-08-04T01:40:05.533Z,72.41
2018-08-04T01:42:33.880Z,73.05
2018-08-04T01:45:02.238Z,72.69
2018-08-04T01:47:31.624Z,72.80
2018-08-04T01:50:00.956Z,74.01
2018-08-04T01:52:30.373Z,73.54
2018-08-04T01:55:00.950Z,74.09
2018-08-04T01:57:30.154Z,74.04
2018-08-04T01:59:59.586Z,73.50
2018-08-04T02:02:27.972Z,74.25
2018-08-04T02:04:57.334Z,73.81
2018-08-04T02:07:26.580Z,74.63
2018-08-04T02:09:55.787Z,74.26
2018-08-04T02:12:24.736Z,74.42
2018-08-04T02:14:53.112Z,74.36
2018-08-04T02:17:21.450Z,74.21
2018-08-04T02:19:49.797Z,73.73
2018-08-04T02:22:18.233Z,73.72
2018-08-04T02:24:47.174Z,73.70
2018-08-04T02:27:16.381Z,73.08
2018-08-04T02:29:45.724Z,74.50
2018-08-04T02:32:14.057Z,74.99
2018-08-04T02:34:42.409Z,75.40
2018-08-04T02:37:10.766Z,75.68
2018-08-04T02:39:39.124Z,75.73
2018-08-04T02:42:07.457Z,75.58
2018-08-04T02:44:36.673Z,75.32
2018-08-04T02:47:06.393Z,75.67
2018-08-04T02:49:37.189Z,74.48
2018-08-04T02:52:06.632Z,74.41
2018-08-04T02:54:36.816Z,74.55
2018-08-04T02:57:06.382Z,75.40
2018-08-04T02:59:37.131Z,75.61
2018-08-04T03:02:06.838Z,75.72
2018-08-04T03:04:36.075Z,75.28
2018-08-04T03:07:06.463Z,74.78
2018-08-04T03:09:35.526Z,74.17
2018-08-04T03:12:04.761Z,74.33
2018-08-04T03:14:33.084Z,73.90
2018-08-04T03:17:02.346Z,73.48
2018-08-04T03:19:31.642Z,73.02
2018-08-04T03:22:02.458Z,73.15
2018-08-04T03:24:30.841Z,72.21
2018-08-04T03:26:59.601Z,72.46
2018-08-04T03:29:28.612Z,73.01
2018-08-04T03:31:58.046Z,73.43
2018-08-04T03:34:27.238Z,74.51
2018-08-04T03:36:56.606Z,74.61
2018-08-04T03:39:25.878Z,74.90
2018-08-04T03:41:55.216Z,75.39
2018-08-04T03:44:23.565Z,74.86
2018-08-04T03:49:26.006Z,76.45
2018-08-04T03:51:55.255Z,77.66
2018-08-04T03:54:24.509Z,78.05
2018-08-04T03:56:53.733Z,77.59
2018-08-04T03:59:23.077Z,78.16
2018-08-04T04:01:52.416Z,78.58
2018-08-04T04:04:21.625Z,78.58
2018-08-04T04:06:50.965Z,77.92
2018-08-04T04:09:20.178Z,78.19
2018-08-04T04:11:48.522Z,77.84
2018-08-04T04:14:17.918Z,78.31
2018-08-04T04:16:47.202Z,77.93
2018-08-04T04:19:16.409Z,78.24
2018-08-04T04:21:45.732Z,78.46
2018-08-04T04:24:14.073Z,78.20
2018-08-04T04:26:43.394Z,78.01
2018-08-04T04:29:12.750Z,78.39
2018-08-04T04:31:41.085Z,78.52
2018-08-04T04:34:10.320Z,78.64
2018-08-04T04:36:39.520Z,78.19
2018-08-04T04:39:09.364Z,77.26
2018-08-04T04:41:39.065Z,76.77
2018-08-04T04:44:08.830Z,76.52
2018-08-04T04:46:38.183Z,76.02
2018-08-04T04:49:09.451Z,75.85
2018-08-04T04:51:39.124Z,75.38
2018-08-04T04:54:08.498Z,75.99
2018-08-04T04:56:37.716Z,73.61
2018-08-04T04:59:07.243Z,73.58
2018-08-04T05:01:37.702Z,74.36
2018-08-04T05:04:07.085Z,74.21
2018-08-04T05:06:37.703Z,75.83
2018-08-04T05:09:08.407Z,74.98
2018-08-04T05:11:37.786Z,75.23
2018-08-04T05:14:06.256Z,75.61
2018-08-04T05:16:35.945Z,75.59
2018-08-04T05:19:05.075Z,75.15
2018-08-04T05:21:33.473Z,74.31
2018-08-04T05:24:02.843Z,74.39
2018-08-04T05:26:32.845Z,73.66
2018-08-04T05:29:01.887Z,71.40
2018-08-04T05:31:32.599Z,71.31
2018-08-04T05:34:01.993Z,71.91
2018-08-04T05:36:31.248Z,72.71
2018-08-04T05:39:00.730Z,71.47
2018-08-04T05:41:31.063Z,71.50
2018-08-04T05:44:01.847Z,69.23
2018-08-04T05:46:31.231Z,69.63
2018-08-04T05:49:00.482Z,70.41
2018-08-04T05:51:30.158Z,68.78
2018-08-04T05:53:59.661Z,67.59
2018-08-04T05:56:29.840Z,67.95
2018-08-04T05:58:58.728Z,68.45
2018-08-04T06:01:28.668Z,69.32
2018-08-04T06:03:57.019Z,69.54
2018-08-04T06:06:26.306Z,68.89
2018-08-04T06:08:54.656Z,69.17
2018-08-04T06:11:24.062Z,69.24
2018-08-04T06:13:52.569Z,69.28
2018-08-04T06:16:22.282Z,68.87
2018-08-04T06:18:50.758Z,68.09
2018-08-04T06:21:20.139Z,68.03
2018-08-04T06:23:48.493Z,67.85
2018-08-04T06:26:17.662Z,68.35
2018-08-04T06:28:46.935Z,67.92
2018-08-04T06:31:16.345Z,68.81
2018-08-04T06:33:45.718Z,66.95
2018-08-04T06:36:15.084Z,63.39
2018-08-04T06:38:43.434Z,63.44
2018-08-04T06:41:12.742Z,59.63
2018-08-04T06:43:41.912Z,61.59
2018-08-04T06:46:10.499Z,63.53
2018-08-04T06:48:39.835Z,60.36
2018-08-04T06:51:08.234Z,60.60
2018-08-04T06:53:37.231Z,59.85
2018-08-04T06:56:06.569Z,58.38
2018-08-04T06:58:36.801Z,58.34
2018-08-04T07:01:07.194Z,55.41
2018-08-04T07:03:37.373Z,57.49
2018-08-04T07:06:08.158Z,56.92
2018-08-04T07:08:37.396Z,56.31
2018-08-04T07:11:07.129Z,57.43
2018-08-04T07:13:37.873Z,57.48
2018-08-04T07:16:07.187Z,56.49
2018-08-04T07:18:37.103Z,56.48
2018-08-04T07:21:06.778Z,55.81
2018-08-04T07:23:36.281Z,56.32
2018-08-04T07:26:05.377Z,55.17
2018-08-04T07:28:34.497Z,56.04
2018-08-04T07:31:02.869Z,55.35
2018-08-04T07:33:31.808Z,55.57
2018-08-04T07:36:01.548Z,55.91
2018-08-04T07:38:30.762Z,55.54
2018-08-04T07:40:59.779Z,54.50
2018-08-04T07:43:28.639Z,52.56
2018-08-04T07:45:57.028Z,52.75
2018-08-04T07:48:26.261Z,52.90
2018-08-04T07:50:55.717Z,52.72
2018-08-04T07:53:24.980Z,52.24
2018-08-04T07:55:54.282Z,51.53
2018-08-04T07:58:22.804Z,50.46
2018-08-04T08:00:51.203Z,52.01
2018-08-04T08:03:19.541Z,49.90
2018-08-04T08:05:47.950Z,50.16
2018-08-04T08:08:16.441Z,51.04
2018-08-04T08:10:47.718Z,50.04
2018-08-04T08:13:16.517Z,48.87
2018-08-04T08:15:45.072Z,48.97
2018-08-04T08:18:13.439Z,48.45
2018-08-04T08:20:41.897Z,49.36
2018-08-04T08:23:10.683Z,48.72
2018-08-04T08:25:39.125Z,47.64
2018-08-04T08:28:07.630Z,50.30
2018-08-04T08:30:36.854Z,49.31
2018-08-04T08:33:06.843Z,48.63
2018-08-04T08:35:37.222Z,48.44
2018-08-04T08:38:06.485Z,46.68
2018-08-04T08:40:34.846Z,47.44
2018-08-04T08:43:05.019Z,47.18
2018-08-04T08:45:33.427Z,45.11
2018-08-04T08:48:01.930Z,47.16
2018-08-04T08:50:31.362Z,45.73
2018-08-04T08:53:01.312Z,46.20
2018-08-04T08:55:32.180Z,43.10
2018-08-04T08:58:01.517Z,42.09
2018-08-04T09:00:30.444Z,43.87
2018-08-04T09:02:58.863Z,45.10
2018-08-04T09:05:27.232Z,41.90
2018-08-04T09:07:55.589Z,42.63
2018-08-04T09:10:23.955Z,41.16
2018-08-04T09:12:53.268Z,43.77
2018-08-04T09:15:22.462Z,42.83
2018-08-04T09:17:51.699Z,40.99
2018-08-04T09:20:21.113Z,36.89
2018-08-04T09:22:50.513Z,42.62
2018-08-04T09:25:19.876Z,38.21
2018-08-04T09:27:48.845Z,35.36
2018-08-04T09:30:17.223Z,36.15
2018-08-04T09:32:46.502Z,37.61
2018-08-04T09:35:15.841Z,37.17
2018-08-04T09:37:44.662Z,37.19
2018-08-04T09:40:15.210Z,34.82
2018-08-04T09:42:44.772Z,36.05
2018-08-04T09:45:13.171Z,37.54
2018-08-04T09:47:42.644Z,34.74
2018-08-04T09:50:13.087Z,35.28
2018-08-04T09:52:42.792Z,35.36
2018-08-04T09:55:12.504Z,32.35
2018-08-04T09:57:41.558Z,33.24
2018-08-04T10:00:15.575Z,32.21
2018-08-04T10:02:43.951Z,36.37
2018-08-04T10:05:12.373Z,35.85
2018-08-04T10:07:40.748Z,31.94
2018-08-04T10:10:09.137Z,35.71
2018-08-04T10:12:37.546Z,34.98
2018-08-04T10:15:08.030Z,34.17
2018-08-04T10:17:37.703Z,35.85
2018-08-04T10:20:07.653Z,34.32
2018-08-04T10:22:37.487Z,34.82
2018-08-04T10:25:06.914Z,33.58
2018-08-04T10:27:37.627Z,31.94
2018-08-04T10:30:08.286Z,34.68
2018-08-04T10:32:38.139Z,33.84
2018-08-04T10:35:07.847Z,34.60
2018-08-04T10:37:37.087Z,30.92
2018-08-04T10:40:06.592Z,31.75
2018-08-04T10:42:34.989Z,33.43
2018-08-04T10:45:03.410Z,30.55
2018-08-04T10:47:32.687Z,33.96
2018-08-04T10:50:03.074Z,33.43
2018-08-04T10:52:33.155Z,29.99
2018-08-04T10:55:01.567Z,33.17
2018-08-04T10:57:30.715Z,34.12
2018-08-04T11:00:00.020Z,35.42
2018-08-04T11:02:38.775Z,32.45
2018-08-04T11:05:08.430Z,33.90
2018-08-04T11:07:38.763Z,35.67
2018-08-04T11:10:08.448Z,30.35
2018-08-04T11:12:37.966Z,29.42
2018-08-04T11:15:07.208Z,31.06
2018-08-04T11:17:37.518Z,30.63
2018-08-04T11:20:38.502Z,30.92
2018-08-04T11:23:07.760Z,28.62
2018-08-04T11:25:37.287Z,30.42
2018-08-04T11:28:06.663Z,28.81
2018-08-04T11:30:35.075Z,29.90
2018-08-04T11:33:03.453Z,31.46
2018-08-04T11:35:31.985Z,28.33
2018-08-04T11:38:01.367Z,29.65
2018-08-04T11:40:30.843Z,29.08
2018-08-04T11:42:59.902Z,27.51
2018-08-04T11:45:28.823Z,29.57
2018-08-04T11:47:57.203Z,29.69
2018-08-04T11:50:25.553Z,30.54
2018-08-04T11:52:53.926Z,28.08
2018-08-04T11:55:22.294Z,30.87
2018-08-04T11:57:52.213Z,26.57
2018-08-04T12:00:20.574Z,26.87
2018-08-04T12:02:49.345Z,27.47
2018-08-04T12:05:17.754Z,27.39
2018-08-04T12:07:46.216Z,28.57
2018-08-04T12:10:15.380Z,28.39
2018-08-04T12:12:43.734Z,27.46
2018-08-04T12:15:12.718Z,27.98
2018-08-04T12:17:42.930Z,29.27
2018-08-04T12:20:12.205Z,28.33
2018-08-04T12:22:41.395Z,28.75
2018-08-04T12:25:09.767Z,30.90
2018-08-04T12:27:39.133Z,29.99
2018-08-04T12:30:09.087Z,27.80
2018-08-04T12:32:38.382Z,28.38
2018-08-04T12:35:09.590Z,27.98
2018-08-04T12:37:39.120Z,28.12
2018-08-04T12:40:08.311Z,28.44
2018-08-04T12:42:38.317Z,29.34
2018-08-04T12:45:08.681Z,28.64
2018-08-04T12:47:37.348Z,27.70
2018-08-04T12:50:06.493Z,31.00
2018-08-04T12:52:34.864Z,29.21
2018-08-04T12:55:03.216Z,28.30
2018-08-04T12:57:32.421Z,29.25
2018-08-04T13:00:01.437Z,28.64
2018-08-04T13:02:31.100Z,27.84
2018-08-04T13:04:59.914Z,27.25
2018-08-04T13:07:28.406Z,27.74
2018-08-04T13:09:56.901Z,27.79
2018-08-04T13:12:25.256Z,27.05
2018-08-04T13:14:53.604Z,28.52
2018-08-04T13:17:22.020Z,27.58
2018-08-04T13:19:50.370Z,27.91
2018-08-04T13:22:18.711Z,27.89
2018-08-04T13:24:47.057Z,28.11
2018-08-04T13:27:15.476Z,28.08
2018-08-04T13:29:44.718Z,27.85
2018-08-04T13:32:14.338Z,27.38
2018-08-04T13:34:42.809Z,28.60
2018-08-04T13:37:11.220Z,27.72
2018-08-04T13:39:39.556Z,28.31
2018-08-04T13:42:08.056Z,28.74
2018-08-04T13:44:37.186Z,29.04
2018-08-04T13:47:06.492Z,28.25
2018-08-04T13:49:34.861Z,28.71
2018-08-04T13:52:03.217Z,30.35
2018-08-04T13:54:31.573Z,33.21
2018-08-04T13:57:02.036Z,34.82
2018-08-04T13:59:33.041Z,32.34
2018-08-04T14:02:04.333Z,30.94
2018-08-04T14:04:32.672Z,31.85
2018-08-04T14:07:02.113Z,31.14
2018-08-04T14:09:31.334Z,32.12
2018-08-04T14:11:59.711Z,30.38
2018-08-04T14:14:30.013Z,29.75
2018-08-04T14:16:59.051Z,30.38
2018-08-04T14:19:27.391Z,31.11
2018-08-04T14:21:56.754Z,31.58
2018-08-04T14:24:25.112Z,31.10
2018-08-04T14:26:53.536Z,31.41
2018-08-04T14:29:21.950Z,30.99
2018-08-04T14:31:50.297Z,31.37
2018-08-04T14:34:19.496Z,31.97
2018-08-04T14:36:47.922Z,30.79
2018-08-04T14:39:16.329Z,31.59
2018-08-04T14:41:44.685Z,29.81
2018-08-04T14:44:13.033Z,29.28
2018-08-04T14:46:42.260Z,28.83
2018-08-04T14:49:11.636Z,27.93
2018-08-04T14:51:40.955Z,27.37
2018-08-04T14:54:09.285Z,27.73
2018-08-04T14:56:37.648Z,27.41
2018-08-04T14:59:07.021Z,27.97
2018-08-04T15:01:36.797Z,28.64
2018-08-04T15:04:06.466Z,28.86
2018-08-04T15:06:36.272Z,30.70
2018-08-04T15:09:08.561Z,30.63
2018-08-04T15:11:37.770Z,31.43
2018-08-04T15:14:07.013Z,32.65
2018-08-04T15:16:36.866Z,31.68
2018-08-04T15:19:06.989Z,32.18
2018-08-04T15:21:37.800Z,32.62
2018-08-04T15:24:08.295Z,33.11
2018-08-04T15:26:37.709Z,31.54
2018-08-04T15:29:06.920Z,29.29
2018-08-04T15:31:36.805Z,30.57
2018-08-04T15:34:06.338Z,30.94
2018-08-04T15:36:35.400Z,30.91
2018-08-04T15:39:05.321Z,31.72
2018-08-04T15:41:35.292Z,29.64
2018-08-04T15:44:05.321Z,29.36
2018-08-04T15:46:33.854Z,28.47
2018-08-04T15:49:03.230Z,25.03
2018-08-04T15:51:32.693Z,27.70
2018-08-04T15:54:02.045Z,25.97
2018-08-04T15:56:31.298Z,24.04
2018-08-04T15:59:01.562Z,24.00
2018-08-04T16:01:31.104Z,26.03
2018-08-04T16:04:01.887Z,28.58
2018-08-04T16:06:31.312Z,28.39
2018-08-04T16:09:01.476Z,28.77
2018-08-04T16:11:30.522Z,29.69
2018-08-04T16:14:00.209Z,29.84
2018-08-04T16:16:29.081Z,29.42
2018-08-04T16:18:57.424Z,30.59
2018-08-04T16:21:25.767Z,29.74
2018-08-04T16:23:54.100Z,30.72
2018-08-04T16:26:22.445Z,30.68
2018-08-04T16:28:51.372Z,29.20
2018-08-04T16:31:19.716Z,29.92
2018-08-04T16:33:48.073Z,29.75
2018-08-04T16:36:16.410Z,30.79
2018-08-04T16:38:44.752Z,32.26
2018-08-04T16:41:13.089Z,31.24
2018-08-04T16:43:41.460Z,32.39
2018-08-04T16:46:09.817Z,33.47
2018-08-04T16:48:38.218Z,33.18
2018-08-04T16:51:07.828Z,34.25
2018-08-04T16:53:36.809Z,35.40
2018-08-04T16:56:06.668Z,35.23
2018-08-04T16:58:35.745Z,36.56
2018-08-04T17:01:05.441Z,35.39
2018-08-04T17:03:33.785Z,36.17
2018-08-04T17:06:02.140Z,37.06
2018-08-04T17:08:32.293Z,36.50
2018-08-04T17:11:01.626Z,36.35
2018-08-04T17:13:31.026Z,36.30
2018-08-04T17:16:00.233Z,36.01
2018-08-04T17:18:28.666Z,36.69
2018-08-04T17:20:56.995Z,36.52
2018-08-04T17:23:25.376Z,37.82
2018-08-04T17:25:53.741Z,37.34
2018-08-04T17:28:22.082Z,38.06
2018-08-04T17:30:50.431Z,37.79
2018-08-04T17:33:18.760Z,38.45
2018-08-04T17:35:47.105Z,38.61
2018-08-04T17:38:15.468Z,38.70
2018-08-04T17:40:43.805Z,38.39
2018-08-04T17:43:12.157Z,39.24
2018-08-04T17:45:40.492Z,39.56
2018-08-04T17:48:08.824Z,40.06
2018-08-04T17:50:37.149Z,40.61
2018-08-04T17:53:06.426Z,41.87
2018-08-04T17:55:35.472Z,42.29
2018-08-04T17:58:03.816Z,42.10
2018-08-04T18:00:32.161Z,42.83
2018-08-04T18:03:00.562Z,42.30
2018-08-04T18:05:30.037Z,43.78
2018-08-04T18:07:59.318Z,44.06
2018-08-04T18:10:29.153Z,43.59
2018-08-04T18:12:57.573Z,45.45
2018-08-04T18:15:25.922Z,45.26
2018-08-04T18:17:54.278Z,44.67
2018-08-04T18:20:22.649Z,45.46
2018-08-04T18:22:52.056Z,46.51
2018-08-04T18:25:21.420Z,45.82
2018-08-04T18:27:50.624Z,47.36
2018-08-04T18:30:19.864Z,47.57
2018-08-04T18:32:48.218Z,47.74
2018-08-04T18:35:16.597Z,47.96
2018-08-04T18:37:44.952Z,47.97
2018-08-04T18:40:13.337Z,49.12
2018-08-04T18:42:41.661Z,49.30
2018-08-04T18:45:11.025Z,49.72
2018-08-04T18:47:39.353Z,49.47
2018-08-04T18:50:07.805Z,50.68
2018-08-04T18:52:37.220Z,50.34
2018-08-04T18:55:07.818Z,49.66
2018-08-04T18:57:37.142Z,49.30
2018-08-04T19:00:07.638Z,50.81
2018-08-04T19:02:36.888Z,51.39
2018-08-04T19:05:06.033Z,51.47
2018-08-04T19:07:35.202Z,51.04
2018-08-04T19:10:05.209Z,51.83
2018-08-04T19:12:35.336Z,52.82
2018-08-04T19:15:05.358Z,52.47
2018-08-04T19:17:34.749Z,53.45
2018-08-04T19:20:03.074Z,53.87
2018-08-04T19:22:31.522Z,54.63
2018-08-04T19:25:00.265Z,54.44
2018-08-04T19:27:28.645Z,55.47
2018-08-04T19:29:56.977Z,56.80
2018-08-04T19:32:25.317Z,56.80
2018-08-04T19:34:53.667Z,56.61
2018-08-04T19:37:22.013Z,56.92
2018-08-04T19:39:50.347Z,58.12
2018-08-04T19:42:18.694Z,58.85
2018-08-04T19:44:47.049Z,57.15
2018-08-04T19:47:15.381Z,57.74
2018-08-04T19:49:43.745Z,58.55
2018-08-04T19:52:12.073Z,60.17
2018-08-04T19:54:40.421Z,60.60
2018-08-04T19:57:08.753Z,60.65
2018-08-04T19:59:37.078Z,59.70
2018-08-04T20:02:06.174Z,61.16
2018-08-04T20:04:35.697Z,59.46
2018-08-04T20:07:05.105Z,60.73
2018-08-04T20:09:34.777Z,60.12
2018-08-04T20:12:05.357Z,60.94
2018-08-04T20:14:35.383Z,61.23
2018-08-04T20:17:05.475Z,60.78
2018-08-04T20:19:33.802Z,61.55
2018-08-04T20:22:02.153Z,62.30
2018-08-04T20:24:31.616Z,62.20
2018-08-04T20:27:00.607Z,62.20
2018-08-04T20:29:28.987Z,61.54
2018-08-04T20:31:58.245Z,62.44
2018-08-04T20:34:26.659Z,62.31
2018-08-04T20:36:55.027Z,62.84
2018-08-04T20:39:23.371Z,63.36
2018-08-04T20:41:51.760Z,64.11
2018-08-04T20:44:20.099Z,63.57
2018-08-04T20:46:48.463Z,63.60
2018-08-04T20:49:16.805Z,63.40
2018-08-04T20:51:45.154Z,64.34
2018-08-04T20:54:13.494Z,63.47
2018-08-04T20:56:41.868Z,64.08
2018-08-04T20:59:10.198Z,63.94
2018-08-04T21:02:10.957Z,64.57
2018-08-04T21:04:39.292Z,65.04
2018-08-04T21:07:07.792Z,65.81
2018-08-04T21:09:37.139Z,65.45
2018-08-04T21:12:06.465Z,66.46
2018-08-04T21:14:35.205Z,66.54
2018-08-04T21:17:05.845Z,65.46
2018-08-04T21:19:36.336Z,66.45
2018-08-04T21:22:05.279Z,66.84
2018-08-04T21:24:35.305Z,67.00
2018-08-04T21:27:05.341Z,66.87
2018-08-04T21:29:33.789Z,66.45
2018-08-04T21:32:02.916Z,67.54
2018-08-04T21:34:32.157Z,67.50
2018-08-04T21:37:01.438Z,66.99
2018-08-04T21:39:31.893Z,66.65
2018-08-04T21:42:00.297Z,68.60
2018-08-04T21:44:30.520Z,68.25
2018-08-04T21:46:59.289Z,66.62
2018-08-04T21:49:27.677Z,68.67
2018-08-04T21:51:56.001Z,68.34
2018-08-04T21:54:24.325Z,68.50
2018-08-04T21:56:53.666Z,69.00
2018-08-04T21:59:22.997Z,68.33
2018-08-04T22:01:55.098Z,69.98
2018-08-04T22:04:23.400Z,70.04
2018-08-04T22:08:01.857Z,70.41
2018-08-04T22:10:31.240Z,70.22
2018-08-04T22:13:00.299Z,71.92
2018-08-04T22:15:29.274Z,72.84
2018-08-04T22:17:57.853Z,72.05
2018-08-04T22:20:26.860Z,72.24
2018-08-04T22:22:55.252Z,72.17
2018-08-04T22:25:25.745Z,72.88
2018-08-04T22:27:55.605Z,73.43
2018-08-04T22:30:24.373Z,73.68
2018-08-04T22:32:53.190Z,74.10
2018-08-04T22:35:21.897Z,73.88
2018-08-04T22:37:50.327Z,74.56
2018-08-04T22:40:19.676Z,75.00
2018-08-04T22:42:48.023Z,75.39
2018-08-04T22:46:11.055Z,75.18
2018-08-04T22:48:39.572Z,75.53
2018-08-04T22:51:07.958Z,76.61
2018-08-04T22:53:37.516Z,76.95
2018-08-04T22:56:06.647Z,77.36
2018-08-04T22:58:34.980Z,78.05
2018-08-04T23:01:03.329Z,78.68
2018-08-04T23:03:33.188Z,78.23
2018-08-04T23:06:02.593Z,79.10
2018-08-04T23:08:31.000Z,78.75
2018-08-04T23:10:59.385Z,79.55
2018-08-04T23:13:27.716Z,78.96
2018-08-04T23:15:56.073Z,79.53
2018-08-04T23:18:24.393Z,78.94
2018-08-04T23:20:52.768Z,79.41
2018-08-04T23:23:22.004Z,79.67
2018-08-04T23:25:51.345Z,79.99
2018-08-04T23:28:20.573Z,81.16
2018-08-04T23:30:49.844Z,80.40
2018-08-04T23:33:18.176Z,81.06
2018-08-04T23:35:47.389Z,81.02
2018-08-04T23:38:15.743Z,80.55
2018-08-04T23:40:44.101Z,81.17
2018-08-04T23:43:12.429Z,80.73
2018-08-04T23:45:40.769Z,81.56
2018-08-04T23:48:09.138Z,81.88
2018-08-04T23:50:37.462Z,82.88
2018-08-04T23:53:06.852Z,83.12
2018-08-04T23:55:35.718Z,82.73
2018-08-04T23:58:05.450Z,83.69
